WZZ95PF EPGD-EDDH
Flight info
| Callsign | WZZ95PF |
|---|---|
| Flight time | N/A |
| Altitude | 36000 |
| Route | DEXIR3H DEXIR T671 AGODU DCT BODLA L733 TABOK DCT RADEL DCT PODUS L619 BUMIL M748 RARUP DCT |
| Aircraft | A21N/M-V/N |
Departure
| Time | 2026-04-30 18:25 |
|---|---|
| Airport | Gdańsk Lech Wałęsa Airport (EPGD) |
Arrival
| Time | N/A |
|---|---|
| Airport | Hamburg Helmut Schmidt Airport (EDDH) |
| Time | Latitude | Longitude | Altitude | Speed | Heading |
|---|---|---|---|---|---|
| 2026-04-30 18:00 | 54.37988 | 18.47209 | 452 ft | 0 kts | 351° |
| 2026-04-30 18:15 | 54.37978 | 18.47212 | 452 ft | 2 kts | 351° |
| 2026-04-30 18:15 | 54.37940 | 18.47229 | 452 ft | 2 kts | 324° |
| 2026-04-30 18:16 | 54.37922 | 18.47264 | 452 ft | 0 kts | 293° |
| 2026-04-30 18:16 | 54.37919 | 18.47275 | 452 ft | 0 kts | 290° |
| 2026-04-30 18:19 | 54.37920 | 18.47273 | 452 ft | 0 kts | 291° |
| 2026-04-30 18:19 | 54.37924 | 18.47255 | 452 ft | 2 kts | 291° |
| 2026-04-30 18:19 | 54.37940 | 18.47188 | 452 ft | 8 kts | 293° |
| 2026-04-30 18:20 | 54.37963 | 18.47085 | 452 ft | 9 kts | 277° |
| 2026-04-30 18:20 | 54.37949 | 18.47016 | 451 ft | 4 kts | 224° |
| 2026-04-30 18:20 | 54.37939 | 18.47002 | 450 ft | 3 kts | 215° |
| 2026-04-30 18:20 | 54.37903 | 18.46974 | 450 ft | 7 kts | 199° |
| 2026-04-30 18:21 | 54.37842 | 18.47007 | 449 ft | 12 kts | 125° |
| 2026-04-30 18:21 | 54.37802 | 18.47160 | 451 ft | 15 kts | 110° |
| 2026-04-30 18:21 | 54.37758 | 18.47340 | 452 ft | 16 kts | 114° |
| 2026-04-30 18:21 | 54.37711 | 18.47523 | 453 ft | 15 kts | 112° |
| 2026-04-30 18:22 | 54.37672 | 18.47679 | 458 ft | 13 kts | 112° |
| 2026-04-30 18:22 | 54.37575 | 18.48076 | 466 ft | 22 kts | 113° |
| 2026-04-30 18:22 | 54.37513 | 18.48325 | 471 ft | 21 kts | 112° |
| 2026-04-30 18:23 | 54.37461 | 18.48536 | 477 ft | 17 kts | 112° |
| 2026-04-30 18:23 | 54.37402 | 18.48643 | 480 ft | 10 kts | 179° |
| 2026-04-30 18:23 | 54.37342 | 18.48622 | 479 ft | 9 kts | 200° |
| 2026-04-30 18:23 | 54.37284 | 18.48580 | 477 ft | 7 kts | 211° |
| 2026-04-30 18:24 | 54.37359 | 18.48224 | 469 ft | 63 kts | 293° |
| 2026-04-30 18:24 | 54.37631 | 18.47135 | 448 ft | 132 kts | 292° |
| 2026-04-30 18:24 | 54.38035 | 18.45519 | 761 ft | 154 kts | 294° |
| 2026-04-30 18:25 | 54.38459 | 18.43835 | 1434 ft | 156 kts | 295° |
| 2026-04-30 18:25 | 54.39334 | 18.40298 | 2364 ft | 180 kts | 296° |
| 2026-04-30 18:25 | 54.39848 | 18.38231 | 2765 ft | 198 kts | 296° |
| 2026-04-30 18:26 | 54.41018 | 18.33537 | 3816 ft | 226 kts | 297° |
| 2026-04-30 18:26 | 54.41621 | 18.31089 | 4633 ft | 228 kts | 297° |
| 2026-04-30 18:26 | 54.42236 | 18.28573 | 5414 ft | 232 kts | 297° |
| 2026-04-30 18:27 | 54.43301 | 18.23317 | 6915 ft | 247 kts | 276° |
| 2026-04-30 18:27 | 54.42889 | 18.20416 | 7608 ft | 264 kts | 244° |
| 2026-04-30 18:28 | 54.39693 | 18.16731 | 8425 ft | 305 kts | 200° |
| 2026-04-30 18:28 | 54.37673 | 18.15438 | 9049 ft | 313 kts | 201° |
| 2026-04-30 18:28 | 54.34318 | 18.11039 | 10454 ft | 311 kts | 249° |
| 2026-04-30 18:29 | 54.33583 | 18.07597 | 11027 ft | 316 kts | 257° |
| 2026-04-30 18:29 | 54.31483 | 17.96326 | 12670 ft | 342 kts | 256° |
| 2026-04-30 18:30 | 54.30165 | 17.89889 | 13726 ft | 349 kts | 255° |
| 2026-04-30 18:30 | 54.28336 | 17.80599 | 15094 ft | 358 kts | 259° |
| 2026-04-30 18:31 | 54.27656 | 17.76505 | 15662 ft | 362 kts | 260° |
| 2026-04-30 18:31 | 54.26291 | 17.68161 | 16752 ft | 371 kts | 260° |
| 2026-04-30 18:32 | 54.24882 | 17.59638 | 17825 ft | 379 kts | 260° |
| 2026-04-30 18:32 | 54.24160 | 17.55301 | 18328 ft | 383 kts | 261° |
| 2026-04-30 18:32 | 54.22631 | 17.46510 | 19356 ft | 392 kts | 257° |
| 2026-04-30 18:33 | 54.21619 | 17.42137 | 19878 ft | 398 kts | 251° |
| 2026-04-30 18:33 | 54.19182 | 17.33670 | 20328 ft | 402 kts | 247° |
| 2026-04-30 18:33 | 54.17917 | 17.29426 | 20336 ft | 402 kts | 247° |
| 2026-04-30 18:34 | 54.16643 | 17.25164 | 20343 ft | 403 kts | 246° |
| 2026-04-30 18:34 | 54.12609 | 17.18511 | 20337 ft | 430 kts | 201° |
| 2026-04-30 18:34 | 54.09676 | 17.17394 | 20340 ft | 437 kts | 177° |
| 2026-04-30 18:35 | 54.06720 | 17.18189 | 20343 ft | 428 kts | 153° |
| 2026-04-30 18:35 | 54.04242 | 17.20698 | 20338 ft | 408 kts | 129° |
| 2026-04-30 18:35 | 54.02615 | 17.24452 | 20337 ft | 385 kts | 105° |